CheckWX is a tool to help pilots better visualize weather data.  It is not intended as a substitute for an official pre-flight weather briefing.

09:28:55 UTC

EBLG METAR
Liège Airport
Liège, Belgium
Current

39 mins ago

EBLG 260850Z 17011KT 9999 FEW048 05/03 Q1016 NOSIG
Observed
Jan-26 @ 08:50 UTC
Wind
  • 170° at 11 KTS
Visibility
10,000+ meters
Flight Rules
VFR
Cloud Levels
  • Few at 4,800' AGL
Temperature
C / 41°F
Dewpoint
C / 37°F
Humidity
87%
Altimeter
30" Hg
Pressure
1015.92 hPa
Previous

1 hour ago

EBLG 260820Z 17009KT 9999 FEW048 05/02 Q1016 NOSIG
Observed
Jan-26 @ 08:20 UTC
Wind
  • 170° at 9 KTS
Visibility
10,000+ meters
Flight Rules
VFR
Cloud Levels
  • Few at 4,800' AGL
Temperature
C / 41°F
Dewpoint
C / 36°F
Humidity
81%
Altimeter
30" Hg
Pressure
1015.92 hPa
Previous

2 hours ago

EBLG 260750Z 16009KT 9999 FEW048 05/02 Q1016 NOSIG
Observed
Jan-26 @ 07:50 UTC
Wind
  • 160° at 9 KTS
Visibility
10,000+ meters
Flight Rules
VFR
Cloud Levels
  • Few at 4,800' AGL
Temperature
C / 41°F
Dewpoint
C / 36°F
Humidity
81%
Altimeter
30" Hg
Pressure
1015.92 hPa